createdAt,value
2023-02-24T00:01:24.843Z,16.33
2023-02-24T00:03:53.399Z,14.70
2023-02-24T00:06:20.841Z,14.77
2023-02-24T00:08:49.592Z,12.70
2023-02-24T00:11:18.790Z,13.87
2023-02-24T00:13:47.689Z,15.97
2023-02-24T00:16:16.669Z,13.97
2023-02-24T00:18:46.134Z,13.90
2023-02-24T00:21:15.683Z,13.07
2023-02-24T00:23:46.286Z,12.63
2023-02-24T00:26:16.751Z,14.37
2023-02-24T00:28:45.236Z,15.47
2023-02-24T00:31:16.426Z,12.73
2023-02-24T00:33:46.269Z,15.90
2023-02-24T00:36:15.123Z,13.10
2023-02-24T00:38:46.986Z,17.53
2023-02-24T00:41:16.791Z,14.27
2023-02-24T00:43:46.872Z,14.03
2023-02-24T00:46:17.095Z,13.67
2023-02-24T00:48:46.868Z,16.17
2023-02-24T00:51:16.558Z,14.43
2023-02-24T00:53:44.352Z,13.53
2023-02-24T00:56:12.920Z,12.47
2023-02-24T00:58:40.384Z,15.90
2023-02-24T01:01:13.700Z,12.77
2023-02-24T01:03:41.639Z,13.03
2023-02-24T01:06:12.036Z,13.53
2023-02-24T01:08:47.998Z,14.97
2023-02-24T01:11:36.238Z,11.93
2023-02-24T01:14:06.981Z,14.27
2023-02-24T01:16:36.736Z,12.20
2023-02-24T01:19:05.722Z,12.47
2023-02-24T01:21:34.779Z,11.73
2023-02-24T01:24:02.588Z,12.87
2023-02-24T01:26:30.908Z,12.00
2023-02-24T01:29:02.572Z,12.77
2023-02-24T01:31:31.822Z,15.13
2023-02-24T01:34:05.757Z,14.63
2023-02-24T01:36:34.700Z,15.97
2023-02-24T01:39:04.235Z,13.43
2023-02-24T01:41:31.704Z,13.67
2023-02-24T01:44:01.930Z,14.67
2023-02-24T01:46:33.452Z,11.93
2023-02-24T01:49:08.240Z,12.23
2023-02-24T01:51:39.814Z,12.50
2023-02-24T01:54:10.059Z,12.00
2023-02-24T01:56:38.599Z,12.37
2023-02-24T01:59:06.158Z,13.57
2023-02-24T02:01:40.468Z,11.23
2023-02-24T02:04:12.824Z,13.17
2023-02-24T02:06:46.973Z,11.27
2023-02-24T02:09:15.830Z,14.03
2023-02-24T02:11:45.987Z,11.63
2023-02-24T02:14:13.482Z,15.93
2023-02-24T02:16:56.067Z,16.23
2023-02-24T02:19:43.452Z,13.00
2023-02-24T02:22:26.816Z,13.07
2023-02-24T02:24:56.269Z,13.03
2023-02-24T02:27:42.431Z,11.03
2023-02-24T02:30:24.769Z,12.33
2023-02-24T02:33:01.968Z,12.13
2023-02-24T02:35:36.734Z,12.23
2023-02-24T02:38:09.171Z,11.97
2023-02-24T02:40:41.012Z,10.27
2023-02-24T02:43:16.477Z,10.53
2023-02-24T02:45:50.886Z,10.13
2023-02-24T02:48:21.116Z,9.73
2023-02-24T02:50:52.314Z,11.70
2023-02-24T02:53:25.409Z,10.60
2023-02-24T02:55:56.547Z,10.90
2023-02-24T02:58:26.577Z,11.30
2023-02-24T03:01:03.876Z,11.17
2023-02-24T03:03:33.906Z,10.47
2023-02-24T03:06:07.071Z,9.20
2023-02-24T03:08:37.529Z,11.47
2023-02-24T03:11:08.318Z,11.53
2023-02-24T03:13:38.692Z,10.17
2023-02-24T03:16:09.842Z,10.50
2023-02-24T03:18:39.467Z,10.20
2023-02-24T03:21:09.336Z,11.07
2023-02-24T03:23:39.093Z,11.57
2023-02-24T03:26:16.986Z,10.30
2023-02-24T03:28:50.009Z,10.73
2023-02-24T03:31:22.741Z,11.20
2023-02-24T03:34:00.786Z,12.30
2023-02-24T03:36:30.807Z,11.60
2023-02-24T03:39:02.054Z,12.00
2023-02-24T03:41:38.464Z,11.93
2023-02-24T03:44:09.474Z,10.40
2023-02-24T03:46:36.955Z,10.87
2023-02-24T03:49:09.889Z,11.00
2023-02-24T03:51:44.663Z,10.87
2023-02-24T03:54:23.429Z,10.43
2023-02-24T03:56:57.859Z,10.63
2023-02-24T03:59:30.644Z,11.10
2023-02-24T04:02:01.571Z,10.50
2023-02-24T04:04:38.693Z,10.47
2023-02-24T04:07:26.311Z,10.43
2023-02-24T04:09:59.191Z,10.97
2023-02-24T04:12:29.018Z,10.80
2023-02-24T04:15:04.829Z,10.60
2023-02-24T04:17:35.107Z,10.83
2023-02-24T04:20:10.600Z,11.97
2023-02-24T04:22:44.105Z,11.90
2023-02-24T04:25:13.565Z,14.97
2023-02-24T04:27:43.587Z,11.03
2023-02-24T04:30:15.544Z,12.63
2023-02-24T04:32:44.035Z,13.17
2023-02-24T04:35:13.604Z,10.80
2023-02-24T04:37:46.779Z,12.80
2023-02-24T04:40:16.852Z,18.70
2023-02-24T04:42:49.190Z,15.37
2023-02-24T04:45:20.738Z,19.30
2023-02-24T04:47:51.129Z,15.53
2023-02-24T04:50:23.657Z,15.23
2023-02-24T04:52:53.244Z,13.07
2023-02-24T04:55:22.300Z,14.33
2023-02-24T04:57:50.016Z,13.40
2023-02-24T05:00:26.827Z,12.33
2023-02-24T05:02:56.270Z,15.70
2023-02-24T05:05:25.432Z,17.37
2023-02-24T05:07:55.174Z,13.67
2023-02-24T05:10:27.700Z,12.93
2023-02-24T05:12:55.202Z,13.17
2023-02-24T05:15:22.537Z,12.90
2023-02-24T05:17:52.328Z,12.03
2023-02-24T05:20:37.415Z,10.90
2023-02-24T05:23:06.635Z,11.60
2023-02-24T05:25:37.593Z,11.93
2023-02-24T05:28:06.430Z,11.80
2023-02-24T05:30:34.546Z,10.07
2023-02-24T05:33:02.207Z,10.87
2023-02-24T05:35:32.206Z,12.33
2023-02-24T05:38:00.652Z,10.37
2023-02-24T05:40:30.252Z,11.50
2023-02-24T05:42:58.131Z,12.57
2023-02-24T05:45:30.636Z,12.57
2023-02-24T05:47:59.336Z,12.37
2023-02-24T05:50:27.621Z,15.33
2023-02-24T05:52:56.344Z,11.80
2023-02-24T05:55:23.694Z,11.40
2023-02-24T05:57:53.161Z,12.47
2023-02-24T06:00:25.782Z,12.37
2023-02-24T06:02:53.284Z,11.90
2023-02-24T06:05:26.612Z,11.23
2023-02-24T06:08:04.372Z,12.40
2023-02-24T06:10:33.898Z,13.93
2023-02-24T06:13:03.448Z,14.27
2023-02-24T06:15:32.398Z,14.90
2023-02-24T06:18:00.884Z,13.83
2023-02-24T06:20:29.034Z,14.07
2023-02-24T06:22:59.000Z,13.63
2023-02-24T06:25:26.942Z,12.30
2023-02-24T06:27:55.456Z,14.27
2023-02-24T06:30:24.920Z,10.83
2023-02-24T06:32:52.478Z,11.40
2023-02-24T06:35:20.086Z,13.20
2023-02-24T06:37:47.836Z,15.77
2023-02-24T06:40:17.131Z,14.17
2023-02-24T06:42:49.394Z,16.93
2023-02-24T06:45:17.435Z,17.20
2023-02-24T06:47:48.693Z,16.57
2023-02-24T06:50:16.247Z,17.00
2023-02-24T06:52:43.910Z,15.07
2023-02-24T06:55:25.077Z,20.80
2023-02-24T06:57:56.964Z,17.43
2023-02-24T07:00:37.051Z,16.53
2023-02-24T07:03:18.257Z,20.93
2023-02-24T07:05:50.303Z,17.30
2023-02-24T07:08:19.059Z,15.67
2023-02-24T07:10:48.294Z,18.40
2023-02-24T07:13:16.068Z,16.07
2023-02-24T07:15:49.012Z,15.60
2023-02-24T07:18:18.359Z,14.20
2023-02-24T07:20:46.772Z,15.67
2023-02-24T07:23:15.022Z,13.27
2023-02-24T07:25:46.563Z,14.90
2023-02-24T07:28:14.108Z,16.20
2023-02-24T07:30:43.008Z,14.83
2023-02-24T07:33:11.840Z,13.63
2023-02-24T07:35:41.606Z,14.63
2023-02-24T07:38:09.412Z,18.53
2023-02-24T07:40:36.840Z,23.07
2023-02-24T07:43:07.164Z,21.53
2023-02-24T07:45:37.028Z,22.07
2023-02-24T07:48:05.480Z,25.33
2023-02-24T07:50:33.575Z,22.73
2023-02-24T07:53:04.916Z,22.87
2023-02-24T07:55:35.823Z,23.77
2023-02-24T07:58:05.740Z,22.33
2023-02-24T08:00:50.599Z,20.77
2023-02-24T08:03:18.470Z,27.93
2023-02-24T08:05:46.437Z,24.53
2023-02-24T08:08:22.947Z,24.20
2023-02-24T08:10:56.057Z,25.23
2023-02-24T08:13:23.507Z,24.03
2023-02-24T08:15:56.471Z,23.00
2023-02-24T08:18:24.359Z,22.47
2023-02-24T08:20:52.937Z,23.07
2023-02-24T08:23:23.320Z,19.17
2023-02-24T08:25:50.744Z,23.87
2023-02-24T08:28:18.125Z,28.87
2023-02-24T08:30:46.515Z,31.50
2023-02-24T08:33:17.317Z,32.80
2023-02-24T08:35:45.533Z,34.50
2023-02-24T08:38:14.945Z,33.13
2023-02-24T08:40:55.697Z,32.57
2023-02-24T08:43:32.549Z,30.67
2023-02-24T08:46:03.500Z,33.00
2023-02-24T08:48:38.061Z,30.07
2023-02-24T08:51:07.832Z,38.50
2023-02-24T08:53:40.201Z,35.70
2023-02-24T08:56:12.585Z,40.03
2023-02-24T08:58:46.820Z,39.43
2023-02-24T09:01:20.078Z,33.43
2023-02-24T09:03:48.400Z,33.93
2023-02-24T09:06:17.457Z,34.67
2023-02-24T09:08:46.717Z,32.47
2023-02-24T09:11:17.220Z,30.50
2023-02-24T09:13:52.494Z,29.47
2023-02-24T09:16:20.833Z,27.00
2023-02-24T09:19:10.024Z,25.60
2023-02-24T09:21:54.527Z,27.10
2023-02-24T09:24:26.996Z,30.00
2023-02-24T09:26:58.544Z,33.33
2023-02-24T09:29:35.179Z,46.57
2023-02-24T09:32:05.683Z,46.07
2023-02-24T09:34:35.375Z,46.40
2023-02-24T09:37:04.607Z,39.10
2023-02-24T09:39:53.416Z,36.47
2023-02-24T09:42:34.992Z,34.40
2023-02-24T09:45:12.177Z,28.40
2023-02-24T09:47:56.531Z,29.27
2023-02-24T09:50:55.496Z,29.23
2023-02-24T09:53:20.395Z,22.20
2023-02-24T09:56:01.077Z,21.80
2023-02-24T09:58:43.323Z,22.03
2023-02-24T10:01:30.754Z,18.43
2023-02-24T10:04:14.824Z,23.73
2023-02-24T10:06:48.647Z,20.13
2023-02-24T10:09:23.387Z,17.77
2023-02-24T10:11:55.416Z,18.70
2023-02-24T10:14:37.903Z,20.10
2023-02-24T10:17:30.433Z,18.17
2023-02-24T10:20:02.285Z,16.70
2023-02-24T10:22:34.770Z,16.37
2023-02-24T10:25:11.762Z,15.33
2023-02-24T10:27:44.575Z,15.70
2023-02-24T10:30:19.690Z,15.90
2023-02-24T10:32:50.625Z,16.83
2023-02-24T10:35:19.482Z,16.60
2023-02-24T10:37:47.061Z,15.47
2023-02-24T10:40:24.681Z,17.17
2023-02-24T10:42:54.957Z,21.80
2023-02-24T10:45:25.382Z,20.30
2023-02-24T10:47:57.638Z,18.30
2023-02-24T10:50:27.638Z,17.17
2023-02-24T10:53:25.959Z,22.93
2023-02-24T10:55:54.207Z,20.97
2023-02-24T10:58:28.113Z,17.83
2023-02-24T11:01:18.543Z,19.40
2023-02-24T11:04:02.004Z,20.63
2023-02-24T11:06:52.576Z,16.93
2023-02-24T11:09:32.073Z,16.37
2023-02-24T11:12:18.767Z,19.17
2023-02-24T11:15:08.747Z,19.47
2023-02-24T11:17:38.162Z,16.00
2023-02-24T11:20:10.758Z,17.93
2023-02-24T11:22:39.424Z,17.27
2023-02-24T11:25:10.027Z,17.53
2023-02-24T11:27:37.463Z,17.60
2023-02-24T11:30:10.693Z,16.53
2023-02-24T11:32:51.166Z,16.87
2023-02-24T11:35:20.535Z,15.87
2023-02-24T11:37:54.113Z,20.73
2023-02-24T11:40:23.767Z,16.57
2023-02-24T11:42:52.881Z,17.10
2023-02-24T11:45:26.064Z,18.70
2023-02-24T11:47:56.368Z,19.27
2023-02-24T11:50:29.566Z,17.57
2023-02-24T11:52:57.878Z,18.90
2023-02-24T11:55:29.577Z,19.03
2023-02-24T11:57:59.128Z,16.63
2023-02-24T12:00:27.874Z,19.70
2023-02-24T12:03:01.351Z,17.47
2023-02-24T12:05:34.878Z,15.83
2023-02-24T12:08:05.098Z,16.23
2023-02-24T12:10:35.398Z,18.30
2023-02-24T12:13:08.413Z,20.37
2023-02-24T12:15:40.205Z,15.77
2023-02-24T12:18:14.773Z,18.77
2023-02-24T12:20:43.952Z,15.93
2023-02-24T12:23:17.962Z,15.53
2023-02-24T12:25:54.945Z,16.47
2023-02-24T12:28:30.809Z,17.57
2023-02-24T12:31:03.149Z,18.90
2023-02-24T12:33:49.154Z,22.87
2023-02-24T12:36:23.504Z,17.47
2023-02-24T12:38:54.202Z,17.03
2023-02-24T12:41:32.747Z,18.80
2023-02-24T12:44:11.485Z,17.43
2023-02-24T12:46:41.911Z,14.97
2023-02-24T12:49:24.469Z,16.90
2023-02-24T12:51:57.101Z,16.53
2023-02-24T12:54:27.142Z,21.03
2023-02-24T12:57:01.521Z,17.63
2023-02-24T12:59:30.377Z,14.67
2023-02-24T13:02:01.398Z,19.53
2023-02-24T13:04:36.456Z,14.20
2023-02-24T13:07:23.193Z,15.20
2023-02-24T13:09:57.123Z,17.53
2023-02-24T13:12:28.099Z,15.83
2023-02-24T13:14:55.684Z,14.87
2023-02-24T13:17:24.538Z,13.83
2023-02-24T13:19:54.228Z,14.70
2023-02-24T13:22:29.986Z,14.57
2023-02-24T13:24:59.490Z,14.10
2023-02-24T13:27:27.530Z,16.97
2023-02-24T13:29:57.677Z,14.67
2023-02-24T13:32:28.347Z,16.87
2023-02-24T13:34:58.349Z,15.80
2023-02-24T13:37:34.354Z,16.90
2023-02-24T13:40:12.825Z,16.07
2023-02-24T13:42:40.243Z,13.33
2023-02-24T13:45:19.931Z,17.20
2023-02-24T13:48:10.117Z,12.57
2023-02-24T13:50:42.663Z,20.30
2023-02-24T13:53:17.977Z,12.97
2023-02-24T13:55:51.661Z,18.80
2023-02-24T13:58:26.762Z,17.80
2023-02-24T14:01:00.830Z,14.37
2023-02-24T14:03:29.620Z,13.70
2023-02-24T14:05:59.089Z,14.60
2023-02-24T14:08:30.535Z,14.10
2023-02-24T14:10:59.252Z,16.67
2023-02-24T14:13:29.716Z,16.07
2023-02-24T14:15:57.709Z,10.70
2023-02-24T14:18:26.433Z,10.70
2023-02-24T14:20:54.557Z,17.03
2023-02-24T14:23:24.528Z,11.67
2023-02-24T14:25:57.375Z,17.87
2023-02-24T14:28:26.433Z,14.43
2023-02-24T14:30:54.425Z,13.80
2023-02-24T14:33:26.776Z,22.23
2023-02-24T14:35:54.225Z,15.27
2023-02-24T14:38:33.552Z,15.20
2023-02-24T14:41:01.507Z,18.43
2023-02-24T14:43:29.463Z,18.83
2023-02-24T14:45:58.485Z,14.60
2023-02-24T14:48:27.290Z,16.30
2023-02-24T14:50:56.280Z,14.83
2023-02-24T14:53:24.645Z,11.93
2023-02-24T14:55:58.825Z,12.53
2023-02-24T14:58:29.220Z,19.43
2023-02-24T15:00:58.105Z,16.73
2023-02-24T15:03:29.210Z,13.37
2023-02-24T15:05:58.705Z,11.83
2023-02-24T15:08:36.529Z,14.53
2023-02-24T15:11:21.723Z,15.40
2023-02-24T15:13:53.617Z,10.73
2023-02-24T15:16:24.311Z,14.07
2023-02-24T15:18:55.068Z,15.93
2023-02-24T15:21:24.191Z,11.83
2023-02-24T15:24:00.804Z,15.63
2023-02-24T15:26:30.966Z,13.73
2023-02-24T15:29:00.243Z,13.33
2023-02-24T15:31:28.787Z,12.77
2023-02-24T15:33:57.891Z,13.30
2023-02-24T15:36:26.462Z,12.77
2023-02-24T15:38:56.564Z,16.50
2023-02-24T15:41:23.998Z,9.30
2023-02-24T15:43:55.934Z,14.13
2023-02-24T15:46:25.387Z,12.83
2023-02-24T15:48:53.916Z,12.17
2023-02-24T15:51:23.717Z,18.63
2023-02-24T15:53:51.107Z,16.33
2023-02-24T15:56:18.533Z,17.83
2023-02-24T15:58:45.904Z,19.17
2023-02-24T16:01:15.071Z,15.60
2023-02-24T16:03:43.045Z,15.13
2023-02-24T16:06:15.099Z,13.60
2023-02-24T16:08:44.738Z,12.30
2023-02-24T16:11:12.489Z,16.60
2023-02-24T16:13:40.108Z,15.20
2023-02-24T16:16:08.085Z,14.27
2023-02-24T16:18:36.906Z,15.70
2023-02-24T16:21:04.488Z,15.70
2023-02-24T16:23:38.513Z,11.47
2023-02-24T16:26:06.051Z,8.93
2023-02-24T16:28:34.563Z,13.33
2023-02-24T16:31:04.566Z,15.70
2023-02-24T16:33:48.036Z,17.87
2023-02-24T16:36:23.635Z,9.93
2023-02-24T16:38:51.863Z,13.27
2023-02-24T16:41:20.118Z,11.73
2023-02-24T16:43:47.632Z,8.90
2023-02-24T16:46:16.803Z,11.33
2023-02-24T16:48:45.893Z,10.50
2023-02-24T16:51:13.998Z,7.87
2023-02-24T16:53:43.701Z,12.33
2023-02-24T16:56:12.281Z,8.53
2023-02-24T16:58:39.711Z,15.50
2023-02-24T17:01:09.890Z,6.97
2023-02-24T17:03:38.931Z,10.83
2023-02-24T17:06:06.720Z,10.17
2023-02-24T17:08:34.496Z,9.00
2023-02-24T17:11:03.430Z,8.57
2023-02-24T17:13:30.885Z,10.27
2023-02-24T17:15:58.254Z,9.50
2023-02-24T17:18:26.101Z,6.77
2023-02-24T17:20:53.871Z,7.73
2023-02-24T17:23:21.858Z,7.23
2023-02-24T17:25:52.666Z,6.70
2023-02-24T17:28:21.969Z,7.00
2023-02-24T17:30:49.759Z,8.43
2023-02-24T17:33:17.689Z,7.43
2023-02-24T17:35:46.894Z,9.60
2023-02-24T17:38:14.815Z,9.30
2023-02-24T17:40:43.116Z,5.97
2023-02-24T17:43:11.043Z,14.80
2023-02-24T17:45:43.313Z,9.27
2023-02-24T17:48:11.040Z,8.37
2023-02-24T17:50:41.646Z,10.47
2023-02-24T17:53:09.302Z,14.47
2023-02-24T17:55:36.723Z,8.20
2023-02-24T17:58:05.993Z,8.93
2023-02-24T18:00:34.295Z,8.17
2023-02-24T18:03:03.721Z,8.03
2023-02-24T18:05:32.715Z,7.03
2023-02-24T18:08:01.555Z,13.37
2023-02-24T18:10:31.238Z,8.63
2023-02-24T18:12:58.609Z,7.60
2023-02-24T18:15:26.464Z,8.30
2023-02-24T18:17:53.860Z,11.83
2023-02-24T18:20:23.954Z,9.37
2023-02-24T18:22:52.766Z,5.37
2023-02-24T18:25:20.856Z,8.50
2023-02-24T18:27:49.282Z,11.93
2023-02-24T18:30:18.053Z,5.67
2023-02-24T18:32:47.335Z,10.40
2023-02-24T18:35:16.839Z,8.13
2023-02-24T18:37:48.784Z,11.03
2023-02-24T18:40:17.179Z,9.70
2023-02-24T18:42:45.005Z,13.90
2023-02-24T18:45:13.857Z,9.33
2023-02-24T18:47:42.269Z,10.43
2023-02-24T18:50:10.962Z,8.93
2023-02-24T18:52:38.346Z,13.20
2023-02-24T18:55:08.739Z,8.97
2023-02-24T18:57:37.152Z,9.27
2023-02-24T19:00:04.805Z,11.87
2023-02-24T19:02:32.260Z,15.57
2023-02-24T19:05:00.586Z,13.33
2023-02-24T19:07:29.948Z,13.07
2023-02-24T19:09:57.634Z,12.80
2023-02-24T19:12:26.477Z,11.43
2023-02-24T19:14:54.007Z,12.13
2023-02-24T19:17:21.472Z,12.37
2023-02-24T19:19:50.526Z,11.53
2023-02-24T19:22:18.352Z,13.93
2023-02-24T19:24:46.137Z,11.67
2023-02-24T19:27:13.994Z,13.60
2023-02-24T19:29:43.088Z,13.63
2023-02-24T19:32:11.144Z,12.40
2023-02-24T19:34:39.237Z,12.40
2023-02-24T19:37:08.712Z,12.43
2023-02-24T19:39:36.836Z,11.60
2023-02-24T19:42:06.381Z,9.83
2023-02-24T19:44:34.221Z,11.83
2023-02-24T19:47:04.646Z,15.10
2023-02-24T19:49:33.247Z,12.43
2023-02-24T19:52:00.896Z,11.73
2023-02-24T19:54:28.944Z,11.13
2023-02-24T19:56:58.385Z,8.23
2023-02-24T19:59:25.789Z,8.60
2023-02-24T20:01:54.161Z,9.83
2023-02-24T20:04:25.079Z,13.23
2023-02-24T20:06:53.300Z,14.77
2023-02-24T20:09:22.348Z,17.17
2023-02-24T20:11:51.724Z,9.47
2023-02-24T20:14:20.729Z,10.53
2023-02-24T20:16:48.291Z,8.40
2023-02-24T20:19:17.207Z,11.07
2023-02-24T20:21:46.181Z,16.17
2023-02-24T20:24:15.105Z,14.90
2023-02-24T20:26:43.478Z,15.67
2023-02-24T20:29:11.893Z,14.30
2023-02-24T20:31:39.810Z,11.73
2023-02-24T20:34:09.165Z,9.43
2023-02-24T20:36:36.581Z,11.17
2023-02-24T20:39:07.572Z,11.10
2023-02-24T20:41:35.268Z,12.23
2023-02-24T20:44:03.388Z,15.67
2023-02-24T20:46:32.646Z,9.90
2023-02-24T20:49:01.668Z,10.20
2023-02-24T20:51:30.232Z,14.37
2023-02-24T20:53:58.661Z,14.93
2023-02-24T20:56:29.127Z,11.70
2023-02-24T20:59:01.163Z,10.23
2023-02-24T21:01:29.179Z,13.53
2023-02-24T21:03:56.652Z,11.00
2023-02-24T21:06:25.397Z,14.60
2023-02-24T21:08:54.233Z,16.13
2023-02-24T21:11:22.646Z,14.67
2023-02-24T21:13:52.028Z,9.27
2023-02-24T21:16:21.356Z,11.20
2023-02-24T21:18:49.656Z,10.33
2023-02-24T21:21:17.499Z,16.03
2023-02-24T21:23:44.849Z,13.33
2023-02-24T21:26:13.548Z,11.70
2023-02-24T21:28:41.444Z,13.20
2023-02-24T21:31:11.895Z,10.30
2023-02-24T21:33:39.604Z,13.30
2023-02-24T21:36:09.562Z,14.67
2023-02-24T21:38:39.147Z,14.17
2023-02-24T21:41:07.994Z,19.70
2023-02-24T21:43:37.629Z,10.80
2023-02-24T21:46:05.942Z,16.13
2023-02-24T21:48:34.786Z,14.80
2023-02-24T21:51:05.138Z,12.87
2023-02-24T21:53:33.827Z,8.83
2023-02-24T21:56:04.662Z,17.00
2023-02-24T21:58:33.725Z,13.97
2023-02-24T22:01:02.176Z,15.77
2023-02-24T22:03:29.712Z,17.87
2023-02-24T22:05:58.542Z,13.07
2023-02-24T22:08:25.919Z,14.07
2023-02-24T22:11:00.404Z,14.90
2023-02-24T22:13:28.403Z,14.20
2023-02-24T22:15:58.900Z,12.13
2023-02-24T22:18:26.644Z,12.87
2023-02-24T22:20:54.555Z,13.23
2023-02-24T22:23:23.253Z,13.77
2023-02-24T22:25:50.631Z,15.93
2023-02-24T22:28:18.507Z,12.40
2023-02-24T22:30:47.512Z,10.60
2023-02-24T22:33:15.256Z,11.70
2023-02-24T22:35:43.199Z,13.57
2023-02-24T22:38:11.992Z,10.10
2023-02-24T22:40:41.150Z,10.37
2023-02-24T22:43:09.782Z,12.97
2023-02-24T22:45:39.217Z,11.70
2023-02-24T22:48:06.709Z,14.63
2023-02-24T22:50:34.393Z,14.70
2023-02-24T22:53:02.596Z,10.33
2023-02-24T22:55:30.832Z,12.07
2023-02-24T22:58:00.850Z,10.13
2023-02-24T23:00:29.310Z,11.13
2023-02-24T23:02:56.951Z,10.60
2023-02-24T23:05:25.314Z,13.63
2023-02-24T23:07:54.480Z,15.60
2023-02-24T23:10:23.315Z,10.93
2023-02-24T23:12:50.707Z,3.50
2023-02-24T23:15:20.482Z,2.07
2023-02-24T23:17:49.807Z,1.90
2023-02-24T23:20:17.894Z,1.87
2023-02-24T23:22:46.524Z,1.40
2023-02-24T23:25:15.637Z,1.47
2023-02-24T23:27:43.057Z,1.93
2023-02-24T23:30:12.225Z,1.93
2023-02-24T23:32:43.988Z,1.40
2023-02-24T23:35:12.815Z,1.73
2023-02-24T23:37:40.779Z,1.80
2023-02-24T23:40:10.334Z,2.10
2023-02-24T23:42:39.048Z,1.67
2023-02-24T23:45:07.433Z,2.40
2023-02-24T23:47:35.006Z,2.40
2023-02-24T23:50:04.900Z,2.60
2023-02-24T23:52:32.736Z,2.70
2023-02-24T23:55:00.624Z,2.90
2023-02-24T23:57:29.588Z,2.77
2023-02-24T23:59:58.798Z,2.67
